createdAt,value
2018-08-18T00:00:20.880Z,2.80
2018-08-18T00:02:49.735Z,4.33
2018-08-18T00:05:18.919Z,2.90
2018-08-18T00:07:48.113Z,4.10
2018-08-18T00:10:19.611Z,3.30
2018-08-18T00:12:48.517Z,2.70
2018-08-18T00:15:17.416Z,3.27
2018-08-18T00:17:46.291Z,3.30
2018-08-18T00:20:19.188Z,2.90
2018-08-18T00:22:48.360Z,2.80
2018-08-18T00:25:17.204Z,3.00
2018-08-18T00:27:46.088Z,2.87
2018-08-18T00:30:20.294Z,3.23
2018-08-18T00:32:49.147Z,3.40
2018-08-18T00:35:18.026Z,2.80
2018-08-18T00:37:46.868Z,2.80
2018-08-18T00:40:15.699Z,2.63
2018-08-18T00:42:44.513Z,3.43
2018-08-18T00:45:14.000Z,3.10
2018-08-18T00:47:42.828Z,2.80
2018-08-18T00:50:13.498Z,3.80
2018-08-18T00:52:42.349Z,3.10
2018-08-18T00:55:11.246Z,3.20
2018-08-18T00:57:40.181Z,3.40
2018-08-18T01:00:09.049Z,3.83
2018-08-18T01:02:37.874Z,3.73
2018-08-18T01:05:06.723Z,4.07
2018-08-18T01:07:35.546Z,4.33
2018-08-18T01:10:04.448Z,3.60
2018-08-18T01:12:34.402Z,4.20
2018-08-18T01:15:03.177Z,4.30
2018-08-18T01:17:32.036Z,4.77
2018-08-18T01:20:00.881Z,4.00
2018-08-18T01:22:29.738Z,5.03
2018-08-18T01:24:58.617Z,7.33
2018-08-18T01:27:27.485Z,8.00
2018-08-18T01:30:01.881Z,6.87
2018-08-18T01:32:31.734Z,5.13
2018-08-18T01:35:00.553Z,4.70
2018-08-18T01:37:31.435Z,3.73
2018-08-18T01:40:00.486Z,3.80
2018-08-18T01:42:32.151Z,3.10
2018-08-18T01:45:01.107Z,2.73
2018-08-18T01:47:30.240Z,3.73
2018-08-18T01:50:06.269Z,3.67
2018-08-18T01:52:37.531Z,3.13
2018-08-18T01:55:07.989Z,3.03
2018-08-18T01:57:36.806Z,3.33
2018-08-18T02:00:24.370Z,3.40
2018-08-18T02:02:53.207Z,2.80
2018-08-18T02:05:22.068Z,3.10
2018-08-18T02:07:50.874Z,3.10
2018-08-18T02:10:19.756Z,3.60
2018-08-18T02:13:03.223Z,2.93
2018-08-18T02:15:32.622Z,3.60
2018-08-18T02:18:01.511Z,4.13
2018-08-18T02:20:30.358Z,3.40
2018-08-18T02:22:59.192Z,3.70
2018-08-18T02:25:28.006Z,4.77
2018-08-18T02:27:56.890Z,4.20
2018-08-18T02:30:25.781Z,2.90
2018-08-18T02:32:54.674Z,3.40
2018-08-18T02:35:23.901Z,4.53
2018-08-18T02:37:52.915Z,5.00
2018-08-18T02:40:21.770Z,3.37
2018-08-18T02:42:50.632Z,3.60
2018-08-18T02:45:19.539Z,3.27
2018-08-18T02:47:49.335Z,3.57
2018-08-18T02:50:18.197Z,3.97
2018-08-18T02:52:47.061Z,4.30
2018-08-18T02:55:15.894Z,3.47
2018-08-18T02:57:45.007Z,3.37
2018-08-18T03:00:23.984Z,3.70
2018-08-18T03:02:52.851Z,3.70
2018-08-18T03:05:21.751Z,4.40
2018-08-18T03:07:51.794Z,4.00
2018-08-18T03:10:24.528Z,4.00
2018-08-18T03:12:59.475Z,3.33
2018-08-18T03:16:07.363Z,3.23
2018-08-18T03:18:39.227Z,3.57
2018-08-18T03:21:08.164Z,3.60
2018-08-18T03:23:36.981Z,3.67
2018-08-18T03:26:05.835Z,3.50
2018-08-18T03:28:42.080Z,3.83
2018-08-18T03:31:10.979Z,3.20
2018-08-18T03:33:39.816Z,3.30
2018-08-18T03:36:41.493Z,4.23
2018-08-18T03:39:22.190Z,3.87
2018-08-18T03:41:52.787Z,3.83
2018-08-18T03:44:21.660Z,3.50
2018-08-18T03:46:50.539Z,4.17
2018-08-18T03:49:19.664Z,3.73
2018-08-18T03:51:53.460Z,4.40
2018-08-18T03:54:22.320Z,4.60
2018-08-18T03:56:51.552Z,4.03
2018-08-18T03:59:20.373Z,4.47
2018-08-18T04:01:53.419Z,5.00
2018-08-18T04:04:23.328Z,5.40
2018-08-18T04:06:53.472Z,3.90
2018-08-18T04:09:39.382Z,4.60
2018-08-18T04:12:09.538Z,3.60
2018-08-18T04:14:42.637Z,3.70
2018-08-18T04:17:29.573Z,4.33
2018-08-18T04:19:58.465Z,3.80
2018-08-18T04:22:27.342Z,4.30
2018-08-18T04:24:56.644Z,4.50
2018-08-18T04:27:40.933Z,5.03
2018-08-18T04:30:15.296Z,3.87
2018-08-18T04:32:55.426Z,4.07
2018-08-18T04:35:25.314Z,3.23
2018-08-18T04:37:54.798Z,3.80
2018-08-18T04:40:24.087Z,4.40
2018-08-18T04:42:52.975Z,3.10
2018-08-18T04:45:22.861Z,4.00
2018-08-18T04:47:51.708Z,3.90
2018-08-18T04:50:22.331Z,4.10
2018-08-18T04:52:52.276Z,3.30
2018-08-18T04:55:21.249Z,2.90
2018-08-18T04:57:50.164Z,3.40
2018-08-18T05:00:19.085Z,3.63
2018-08-18T05:02:56.910Z,3.60
2018-08-18T05:05:28.446Z,3.37
2018-08-18T05:07:59.538Z,2.93
2018-08-18T05:10:28.609Z,3.00
2018-08-18T05:12:57.466Z,2.97
2018-08-18T05:15:26.308Z,3.37
2018-08-18T05:17:55.236Z,4.93
2018-08-18T05:20:25.763Z,4.10
2018-08-18T05:22:54.603Z,2.93
2018-08-18T05:25:29.633Z,3.23
2018-08-18T05:27:58.926Z,3.07
2018-08-18T05:30:27.791Z,3.10
2018-08-18T05:32:56.694Z,3.33
2018-08-18T05:35:25.620Z,3.37
2018-08-18T05:37:54.497Z,3.03
2018-08-18T05:40:23.352Z,3.00
2018-08-18T05:42:52.260Z,3.00
2018-08-18T05:45:40.211Z,3.40
2018-08-18T05:48:09.176Z,2.80
2018-08-18T05:50:38.010Z,3.10
2018-08-18T05:53:22.724Z,3.17
2018-08-18T05:55:51.606Z,2.90
2018-08-18T05:58:20.467Z,2.83
2018-08-18T06:00:50.783Z,3.30
2018-08-18T06:03:21.778Z,3.33
2018-08-18T06:05:50.814Z,3.57
2018-08-18T06:08:19.560Z,3.73
2018-08-18T06:10:48.476Z,3.43
2018-08-18T06:13:20.127Z,4.10
2018-08-18T06:16:07.305Z,2.97
2018-08-18T06:18:37.939Z,3.37
2018-08-18T06:21:07.412Z,4.07
2018-08-18T06:23:37.865Z,4.10
2018-08-18T06:26:07.368Z,3.20
2018-08-18T06:28:36.216Z,3.53
2018-08-18T06:31:05.186Z,5.67
2018-08-18T06:33:34.143Z,4.40
2018-08-18T06:36:03.425Z,3.90
2018-08-18T06:38:32.274Z,2.90
2018-08-18T06:41:02.504Z,3.10
2018-08-18T06:43:34.222Z,3.57
2018-08-18T06:46:03.532Z,3.50
2018-08-18T06:48:34.520Z,2.63
2018-08-18T06:51:03.567Z,2.80
2018-08-18T06:53:37.986Z,2.87
2018-08-18T06:56:07.644Z,3.10
2018-08-18T06:58:36.852Z,3.33
2018-08-18T07:01:06.368Z,3.80
2018-08-18T07:03:37.500Z,3.30
2018-08-18T07:06:07.479Z,2.57
2018-08-18T07:08:41.883Z,3.33
2018-08-18T07:11:11.486Z,2.90
2018-08-18T07:13:40.996Z,3.63
2018-08-18T07:16:13.809Z,2.83
2018-08-18T07:21:57.996Z,3.10
2018-08-18T07:24:26.870Z,2.73
2018-08-18T07:26:55.779Z,2.47
2018-08-18T07:29:24.639Z,2.90
2018-08-18T07:31:53.438Z,2.90
2018-08-18T07:34:22.397Z,3.27
2018-08-18T07:36:51.302Z,3.03
2018-08-18T07:39:20.186Z,2.73
2018-08-18T07:41:49.052Z,2.60
2018-08-18T07:44:17.896Z,2.47
2018-08-18T07:46:46.878Z,3.03
2018-08-18T07:49:15.726Z,2.73
2018-08-18T07:51:44.662Z,2.80
2018-08-18T07:54:13.493Z,2.53
2018-08-18T07:56:42.324Z,3.30
2018-08-18T07:59:11.188Z,3.40
2018-08-18T08:01:40.045Z,2.47
2018-08-18T08:04:08.879Z,2.53
2018-08-18T08:06:37.820Z,3.00
2018-08-18T08:09:07.143Z,3.67
2018-08-18T08:11:35.988Z,2.50
2018-08-18T08:14:04.944Z,2.90
2018-08-18T08:16:33.779Z,2.70
2018-08-18T08:19:02.653Z,2.43
2018-08-18T08:21:31.487Z,2.53
2018-08-18T08:24:00.299Z,2.50
2018-08-18T08:26:29.169Z,2.87
2018-08-18T08:28:58.024Z,2.87
2018-08-18T08:31:26.858Z,2.83
2018-08-18T08:33:55.739Z,3.07
2018-08-18T08:36:25.459Z,2.50
2018-08-18T08:38:58.750Z,2.43
2018-08-18T08:41:31.097Z,2.67
2018-08-18T08:44:00.112Z,2.57
2018-08-18T08:46:28.872Z,3.00
2018-08-18T08:49:00.241Z,2.20
2018-08-18T08:51:28.951Z,2.27
2018-08-18T08:53:58.996Z,2.10
2018-08-18T08:56:32.897Z,2.23
2018-08-18T08:59:01.721Z,2.10
2018-08-18T09:01:31.171Z,2.47
2018-08-18T09:03:59.845Z,2.00
2018-08-18T09:06:28.568Z,2.50
2018-08-18T09:08:58.995Z,3.00
2018-08-18T09:11:28.876Z,2.43
2018-08-18T09:14:03.598Z,2.90
2018-08-18T09:16:33.999Z,3.60
2018-08-18T09:19:02.735Z,3.33
2018-08-18T09:21:38.754Z,3.23
2018-08-18T09:24:07.413Z,2.60
2018-08-18T09:26:41.865Z,2.53
2018-08-18T09:29:11.346Z,1.97
2018-08-18T09:31:40.370Z,2.70
2018-08-18T09:34:09.133Z,2.93
2018-08-18T09:36:37.821Z,2.43
2018-08-18T09:39:10.066Z,2.27
2018-08-18T09:41:39.002Z,2.33
2018-08-18T09:44:09.902Z,2.73
2018-08-18T09:46:38.623Z,2.57
2018-08-18T09:49:07.285Z,2.30
2018-08-18T09:51:35.973Z,2.07
2018-08-18T09:54:04.655Z,2.73
2018-08-18T09:56:33.323Z,2.40
2018-08-18T09:59:01.995Z,2.43
2018-08-18T10:01:30.729Z,2.73
2018-08-18T10:03:59.432Z,2.30
2018-08-18T10:06:28.171Z,2.50
2018-08-18T10:08:56.778Z,2.70
2018-08-18T10:11:25.412Z,2.63
2018-08-18T10:13:54.098Z,2.40
2018-08-18T10:16:23.176Z,3.07
2018-08-18T10:18:51.897Z,2.50
2018-08-18T10:21:20.592Z,3.20
2018-08-18T10:23:49.267Z,2.23
2018-08-18T10:26:18.111Z,2.77
2018-08-18T10:28:46.959Z,2.60
2018-08-18T10:31:15.752Z,2.70
2018-08-18T10:33:44.609Z,2.20
2018-08-18T10:36:14.002Z,2.47
2018-08-18T10:38:42.858Z,2.03
2018-08-18T10:41:11.716Z,2.10
2018-08-18T10:43:40.546Z,2.30
2018-08-18T10:46:09.412Z,3.00
2018-08-18T10:48:38.617Z,2.70
2018-08-18T10:51:26.505Z,3.20
2018-08-18T10:53:55.362Z,3.00
2018-08-18T10:56:24.560Z,2.90
2018-08-18T10:59:13.834Z,3.00
2018-08-18T11:02:31.166Z,2.60
2018-08-18T11:05:00.180Z,2.90
2018-08-18T11:07:29.045Z,2.60
2018-08-18T11:09:57.957Z,3.03
2018-08-18T11:12:26.816Z,3.20
2018-08-18T11:14:58.850Z,3.10
2018-08-18T11:17:28.847Z,2.70
2018-08-18T11:20:01.932Z,2.90
2018-08-18T11:23:09.304Z,2.70
2018-08-18T11:25:43.746Z,2.77
2018-08-18T11:28:13.311Z,3.10
2018-08-18T11:30:42.308Z,2.50
2018-08-18T11:33:11.704Z,2.47
2018-08-18T11:35:40.528Z,3.13
2018-08-18T11:38:11.415Z,3.83
2018-08-18T11:40:40.288Z,2.43
2018-08-18T11:43:11.705Z,2.90
2018-08-18T11:45:41.486Z,2.80
2018-08-18T11:48:12.716Z,2.60
2018-08-18T11:50:41.837Z,3.13
2018-08-18T11:53:10.669Z,2.57
2018-08-18T11:55:39.788Z,2.63
2018-08-18T11:58:11.226Z,2.10
2018-08-18T12:00:43.523Z,2.63
2018-08-18T12:03:14.565Z,2.30
2018-08-18T12:05:49.082Z,2.60
2018-08-18T12:08:20.187Z,2.63
2018-08-18T12:10:50.166Z,2.77
2018-08-18T12:13:21.504Z,2.30
2018-08-18T12:16:02.051Z,2.77
2018-08-18T12:18:32.060Z,2.73
2018-08-18T12:21:03.212Z,2.73
2018-08-18T12:23:33.943Z,3.07
2018-08-18T12:26:07.953Z,3.57
2018-08-18T12:28:42.812Z,3.37
2018-08-18T12:31:13.607Z,3.57
2018-08-18T12:33:42.573Z,2.67
2018-08-18T12:36:11.452Z,3.07
2018-08-18T12:38:47.985Z,3.63
2018-08-18T12:41:16.861Z,3.60
2018-08-18T12:43:49.699Z,3.27
2018-08-18T12:46:19.720Z,3.10
2018-08-18T12:48:49.911Z,4.07
2018-08-18T12:51:19.421Z,3.33
2018-08-18T12:53:50.200Z,3.40
2018-08-18T12:56:22.722Z,3.43
2018-08-18T12:58:51.748Z,3.30
2018-08-18T13:01:41.200Z,3.60
2018-08-18T13:04:17.013Z,3.07
2018-08-18T13:06:47.397Z,2.83
2018-08-18T13:09:18.389Z,2.80
2018-08-18T13:11:49.028Z,2.67
2018-08-18T13:14:19.913Z,2.80
2018-08-18T13:16:49.030Z,9.43
2018-08-18T13:19:20.265Z,2.60
2018-08-18T13:21:49.129Z,3.17
2018-08-18T13:24:18.002Z,2.93
2018-08-18T13:26:46.992Z,3.50
2018-08-18T13:29:15.767Z,3.50
2018-08-18T13:31:45.249Z,3.00
2018-08-18T13:34:15.365Z,4.17
2018-08-18T13:36:45.180Z,3.13
2018-08-18T13:39:19.448Z,3.87
2018-08-18T13:41:49.382Z,3.70
2018-08-18T13:44:29.437Z,3.67
2018-08-18T13:46:58.362Z,2.70
2018-08-18T13:49:27.757Z,3.30
2018-08-18T13:51:56.632Z,2.83
2018-08-18T13:54:25.577Z,3.60
2018-08-18T13:56:54.472Z,3.40
2018-08-18T13:59:41.690Z,3.23
2018-08-18T14:02:11.176Z,3.43
2018-08-18T14:04:42.096Z,3.33
2018-08-18T14:07:11.664Z,2.93
2018-08-18T14:09:47.445Z,2.97
2018-08-18T14:12:17.484Z,3.40
2018-08-18T14:14:47.261Z,3.30
2018-08-18T14:17:18.230Z,2.30
2018-08-18T14:19:47.113Z,3.13
2018-08-18T14:22:19.430Z,2.70
2018-08-18T14:24:48.349Z,2.83
2018-08-18T14:27:21.031Z,3.00
2018-08-18T14:29:49.911Z,2.87
2018-08-18T14:32:24.081Z,3.27
2018-08-18T14:34:58.536Z,3.10
2018-08-18T14:37:27.446Z,2.97
2018-08-18T14:39:56.312Z,2.97
2018-08-18T14:42:25.280Z,3.27
2018-08-18T14:44:56.965Z,2.80
2018-08-18T14:47:25.900Z,2.90
2018-08-18T14:50:28.689Z,2.50
2018-08-18T14:52:57.667Z,2.77
2018-08-18T14:55:26.544Z,3.13
2018-08-18T14:58:00.862Z,3.10
2018-08-18T15:00:29.738Z,3.13
2018-08-18T15:02:58.676Z,2.97
2018-08-18T15:05:27.557Z,2.67
2018-08-18T15:07:57.404Z,2.80
2018-08-18T15:10:41.875Z,3.47
2018-08-18T15:13:11.432Z,2.40
2018-08-18T15:15:40.439Z,2.20
2018-08-18T15:18:11.633Z,2.93
2018-08-18T15:20:41.109Z,2.40
2018-08-18T15:23:10.681Z,2.23
2018-08-18T15:25:40.381Z,2.90
2018-08-18T15:28:10.951Z,2.93
2018-08-18T15:30:40.960Z,2.80
2018-08-18T15:33:10.974Z,3.07
2018-08-18T15:35:40.794Z,2.60
2018-08-18T15:38:10.373Z,3.07
2018-08-18T15:40:39.290Z,3.30
2018-08-18T15:43:08.154Z,2.90
2018-08-18T15:45:59.184Z,3.00
2018-08-18T15:48:28.254Z,3.00
2018-08-18T15:50:57.144Z,2.37
2018-08-18T15:53:50.099Z,2.50
2018-08-18T15:56:19.934Z,2.53
2018-08-18T15:58:49.494Z,2.80
2018-08-18T16:01:19.381Z,3.47
2018-08-18T16:03:48.340Z,3.10
2018-08-18T16:06:17.264Z,2.77
2018-08-18T16:08:46.354Z,3.17
2018-08-18T16:11:15.701Z,3.90
2018-08-18T16:13:44.951Z,2.73
2018-08-18T16:16:14.049Z,3.43
2018-08-18T16:18:43.124Z,2.80
2018-08-18T16:21:17.641Z,3.23
2018-08-18T16:23:46.789Z,3.10
2018-08-18T16:26:15.775Z,3.50
2018-08-18T16:28:44.832Z,3.83
2018-08-18T16:31:14.183Z,3.40
2018-08-18T16:33:43.537Z,3.40
2018-08-18T16:36:12.631Z,4.20
2018-08-18T16:38:41.746Z,3.60
2018-08-18T16:41:10.907Z,4.23
2018-08-18T16:43:40.003Z,3.90
2018-08-18T16:46:21.872Z,4.20
2018-08-18T16:48:51.785Z,4.80
2018-08-18T16:51:21.092Z,4.50
2018-08-18T16:53:50.195Z,4.20
2018-08-18T16:56:29.524Z,5.10
2018-08-18T16:59:00.742Z,4.00
2018-08-18T17:01:30.091Z,4.33
2018-08-18T17:03:59.294Z,4.97
2018-08-18T17:06:28.678Z,4.80
2018-08-18T17:08:58.658Z,4.00
2018-08-18T17:11:27.879Z,4.57
2018-08-18T17:13:59.684Z,4.70
2018-08-18T17:16:29.000Z,4.73
2018-08-18T17:18:58.463Z,5.00
2018-08-18T17:21:28.148Z,4.67
2018-08-18T17:23:57.597Z,4.97
2018-08-18T17:26:27.226Z,7.10
2018-08-18T17:28:56.845Z,4.93
2018-08-18T17:31:26.202Z,5.17
2018-08-18T17:33:55.682Z,5.00
2018-08-18T17:36:25.163Z,7.63
2018-08-18T17:38:54.525Z,5.93
2018-08-18T17:41:23.902Z,5.37
2018-08-18T17:43:53.308Z,4.80
2018-08-18T17:46:22.641Z,5.17
2018-08-18T17:48:53.986Z,5.27
2018-08-18T17:54:23.443Z,5.00
2018-08-18T17:56:54.768Z,5.47
2018-08-18T17:59:28.174Z,5.20
2018-08-18T18:02:15.153Z,5.43
2018-08-18T18:05:10.847Z,6.10
2018-08-18T18:08:11.127Z,5.67
2018-08-18T18:20:06.902Z,6.40
2018-08-18T18:22:50.343Z,6.97
2018-08-18T18:25:21.401Z,5.80
2018-08-18T18:27:51.782Z,6.20
2018-08-18T18:30:27.022Z,6.53
2018-08-18T18:32:57.522Z,6.70
2018-08-18T18:35:28.403Z,6.50
2018-08-18T18:38:01.849Z,5.90
2018-08-18T18:40:39.423Z,6.57
2018-08-18T18:43:27.708Z,7.23
2018-08-18T18:46:00.878Z,6.30
2018-08-18T18:48:33.683Z,6.80
2018-08-18T18:51:07.127Z,5.90
2018-08-18T18:54:00.697Z,6.87
2018-08-18T18:56:38.509Z,6.33
2018-08-18T18:59:11.262Z,5.80
2018-08-18T19:01:44.204Z,6.07
2018-08-18T19:04:16.105Z,6.87
2018-08-18T19:07:00.969Z,7.37
2018-08-18T19:09:32.404Z,6.83
2018-08-18T19:12:03.699Z,5.97
2018-08-18T19:14:34.866Z,6.80
2018-08-18T19:17:06.189Z,6.60
2018-08-18T19:19:36.384Z,6.90
2018-08-18T19:22:09.644Z,6.50
2018-08-18T19:24:39.067Z,6.90
2018-08-18T19:27:08.409Z,7.00
2018-08-18T19:29:38.062Z,8.23
2018-08-18T19:32:07.045Z,8.10
2018-08-18T19:34:36.110Z,7.87
2018-08-18T19:37:07.728Z,8.17
2018-08-18T19:39:37.433Z,8.70
2018-08-18T19:42:16.923Z,9.30
2018-08-18T19:44:47.178Z,9.00
2018-08-18T19:47:24.463Z,10.10
2018-08-18T19:49:53.360Z,9.63
2018-08-18T19:52:24.070Z,10.90
2018-08-18T19:54:53.294Z,8.07
2018-08-18T19:57:27.703Z,8.30
2018-08-18T20:00:05.473Z,9.70
2018-08-18T20:02:51.312Z,8.83
2018-08-18T20:05:21.127Z,8.70
2018-08-18T20:07:50.124Z,9.23
2018-08-18T20:10:19.151Z,9.97
2018-08-18T20:12:48.084Z,9.87
2018-08-18T20:15:17.238Z,13.90
2018-08-18T20:17:46.315Z,12.10
2018-08-18T20:20:22.652Z,9.93
2018-08-18T20:22:51.667Z,11.97
2018-08-18T20:25:20.834Z,12.50
2018-08-18T20:27:49.643Z,12.20
2018-08-18T20:30:18.541Z,13.10
2018-08-18T20:32:47.609Z,13.17
2018-08-18T20:35:16.456Z,12.33
2018-08-18T20:37:45.651Z,12.13
2018-08-18T20:40:14.781Z,12.23
2018-08-18T20:42:44.802Z,11.27
2018-08-18T20:45:14.216Z,10.47
2018-08-18T20:47:44.451Z,11.80
2018-08-18T20:50:15.416Z,11.97
2018-08-18T20:52:44.468Z,12.30
2018-08-18T20:55:14.015Z,14.40
2018-08-18T20:57:46.845Z,12.83
2018-08-18T21:00:15.728Z,13.00
2018-08-18T21:02:44.540Z,13.00
2018-08-18T21:05:13.369Z,12.90
2018-08-18T21:07:42.259Z,12.73
2018-08-18T21:10:12.528Z,13.70
2018-08-18T21:12:46.416Z,14.27
2018-08-18T21:15:16.263Z,13.60
2018-08-18T21:17:45.181Z,16.00
2018-08-18T21:20:17.710Z,17.50
2018-08-18T21:22:46.796Z,18.57
2018-08-18T21:25:15.907Z,16.17
2018-08-18T21:27:44.934Z,16.77
2018-08-18T21:30:16.913Z,16.57
2018-08-18T21:32:45.775Z,14.83
2018-08-18T21:35:14.690Z,15.97
2018-08-18T21:37:43.660Z,14.40
2018-08-18T21:40:12.577Z,14.50
2018-08-18T21:42:41.436Z,12.90
2018-08-18T21:45:12.028Z,15.17
2018-08-18T21:47:40.899Z,16.30
2018-08-18T21:50:09.758Z,15.80
2018-08-18T21:52:38.673Z,14.30
2018-08-18T21:55:07.516Z,14.70
2018-08-18T21:57:54.924Z,14.83
2018-08-18T22:00:27.968Z,17.60
2018-08-18T22:02:58.648Z,16.93
2018-08-18T22:05:34.539Z,16.73
2018-08-18T22:08:03.517Z,16.60
2018-08-18T22:10:33.215Z,17.50
2018-08-18T22:13:02.089Z,16.43
2018-08-18T22:15:33.412Z,15.70
2018-08-18T22:18:02.917Z,14.67
2018-08-18T22:20:33.374Z,15.77
2018-08-18T22:23:02.304Z,15.70
2018-08-18T22:25:31.299Z,17.47
2018-08-18T22:28:00.194Z,15.20
2018-08-18T22:30:29.064Z,13.37
2018-08-18T22:32:59.569Z,14.07
2018-08-18T22:35:28.518Z,15.10
2018-08-18T22:37:57.395Z,13.03
2018-08-18T22:40:26.440Z,11.93
2018-08-18T22:42:55.283Z,12.43
2018-08-18T22:45:29.573Z,13.23
2018-08-18T22:47:58.439Z,11.80
2018-08-18T22:50:27.339Z,12.87
2018-08-18T22:52:56.187Z,12.10
2018-08-18T22:55:25.024Z,13.20
2018-08-18T22:57:58.011Z,10.80
2018-08-18T23:00:27.307Z,11.87
2018-08-18T23:02:56.131Z,11.97
2018-08-18T23:05:24.995Z,10.77
2018-08-18T23:07:55.388Z,12.03
2018-08-18T23:10:28.881Z,12.00
2018-08-18T23:12:57.769Z,10.90
2018-08-18T23:15:26.632Z,11.20
2018-08-18T23:17:55.486Z,11.40
2018-08-18T23:20:24.363Z,11.57
2018-08-18T23:22:58.129Z,10.67
2018-08-18T23:25:28.833Z,10.77
2018-08-18T23:27:57.847Z,13.23
2018-08-18T23:30:32.001Z,10.73
2018-08-18T23:33:01.709Z,11.63
2018-08-18T23:35:30.968Z,11.33
2018-08-18T23:37:59.979Z,11.90
2018-08-18T23:40:28.946Z,11.27
2018-08-18T23:42:57.830Z,10.50
2018-08-18T23:45:37.360Z,12.27
2018-08-18T23:48:12.920Z,11.70
2018-08-18T23:50:42.935Z,11.27
2018-08-18T23:53:16.053Z,11.53
2018-08-18T23:55:50.461Z,11.73
2018-08-18T23:58:21.754Z,11.73
